Tiempo atmosférico en la estación meteorológica de Fuentes de Andalucía, Sevilla (165 m.)



Fecha
DESCASC
Temp. máxima en grados centígrados (hora)
DESCASC
Temp. mínima en grados centígrados (hora)
DESCASC
Temp. media en grados centígrados
DESCASC
Racha de viento máxima en m/sg (hora)
DESCASC
Velocidad máxima media en intervalos de 10 minutos(hora)
DESCASC
Precipitaciones diarias en mm
DESCASC
Precipitaciones de 00:00 a 06:00 en mm
DESCASC
Precipitaciones de 06:00 a 12:00 en mm
DESCASC
Precipitaciones de 12:00 a 18:00 en mm
DESCASC
Precipitaciones de 18:00 a 24:00 en mm
DESCASC
29-03-2020 21.3 (17:10) 9.9 (09:00) 15.6 8.33 (21:40) 5.28 (21:40) 0 0 0 0 0
28-03-2020 19.7 (16:20) 6.8 (07:20) 13.3 6.11 (11:40) 4.17 (21:30) 0 0 0 0 0
27-03-2020 17.6 (16:00) 7.8 (08:30) 12.7 11.11 (14:20) 7.78 (14:20) 0 0 0 0 0
26-03-2020 22.1 (16:50) 10.6 (00:00) 16.4 10.83 (17:20) 7.78 (17:30) 0 0 0 0 0
25-03-2020 20.2 (16:20) 10.9 (00:00) 15.6 12.5 (21:00) 8.89 (21:00) 2.2 0 0 0 2.2
24-03-2020 20.2 (15:20) 9.1 (00:00) 14.7 9.17 (10:40) 5 (10:40) 0 0 0 0 0
23-03-2020 18.9 (16:00) 8.3 (00:00) 13.6 10 (16:50) 5.56 (17:00) 0 0 0 0 0
22-03-2020 15.3 (17:30) 8.3 (00:50) 11.8 3.89 (12:10) 2.22 (00:40) 12.4 0.8 9 2.6 0
21-03-2020 15.2 (00:20) 8.6 (00:00) 11.9 13.33 (13:10) 8.61 (13:10) 26.8 14.8 0.2 9.4 2.4
20-03-2020 20.9 (14:30) 11.6 (00:00) 16.3 8.61 (21:30) 4.72 (21:40) 0 0 0 0 0
19-03-2020 22.2 (15:50) 12.8 (00:00) 17.5 11.67 (13:50) 6.11 (16:30) 0 0 0 0 0
18-03-2020 23.5 (15:40) 11.2 (00:00) 17.3 10 (09:20) 5.28 (09:30) 0 0 0 0 0
17-03-2020 17.8 (16:30) 7.2 (00:00) 12.5 13.06 (13:10) 7.22 (13:10) 2 0.8 1 0.2 0
16-03-2020 14.5 (13:10) 5.7 (00:00) 10.1 10.28 (04:40) 6.94 (02:00) 0.6 0 0 0 0.6
15-03-2020 22.7 (17:00) 11.4 (00:00) 17.1 8.33 (15:30) 5.28 (23:40) 0 0 0 0 0
14-03-2020 22 (17:40) 11 (00:00) 16.5 5.28 (00:10) 3.89 (00:10) 0.2 0 0.2 0 0
13-03-2020 22.7 (16:40) 11.6 (03:20) 17.2 7.78 (17:00) 5.28 (17:30) 0 0 0 0 0
12-03-2020 25.2 (15:00) 12.5 (00:00) 18.9 9.17 (16:40) 5.83 (16:30) 0 0 0 0 0
11-03-2020 29.6 (15:40) 9.5 (00:00) 19.6 9.72 (15:40) 5 (15:30) 0 0 0 0 0
10-03-2020 26.5 (17:00) 10 (00:00) 18.3 9.17 (12:10) 5 (12:20) 0 0 0 0 0
09-03-2020 22.8 (17:20) 9.2 (00:00) 16 5.28 (14:10) 3.61 (20:30) 0 0 0 0 0
08-03-2020 23.1 (17:00) 5.6 (00:00) 14.4 6.11 (10:40) 3.61 (11:00) 0 0 0 0 0
07-03-2020 20.8 (17:20) 6 (00:00) 13.4 8.33 (11:20) 5.28 (11:20) 0 0 0 0 0
06-03-2020 18.5 (15:50) 5.9 (00:00) 12.2 10.28 (15:20) 6.94 (15:20) 0 0 0 0 0
05-03-2020 18.6 (17:10) 8.3 (00:00) 13.5 11.67 (13:40) 7.78 (13:40) 0 0 0 0 0
04-03-2020 21.4 (16:30) 9.3 (08:30) 15.3 7.78 (01:20) 5.28 (01:40) 0 0 0 0 0
03-03-2020 17.6 (14:20) 6.7 (00:00) 12.2 10.28 (13:10) 7.78 (18:50) 0 0 0 0 0
02-03-2020 20 (14:30) 10.7 (00:00) 15.3 19.72 (13:40) 11.67 (09:30) 2 0 2 0 0
01-03-2020 18.1 (15:00) 9.5 (00:00) 13.8 11.67 (18:40) 8.61 (18:40) 0.2 0 0 0 0.2
29-02-2020 16.7 (14:10) 10.6 (00:00) 13.7 12.22 (17:30) 8.89 (17:20) 3.6 0 0 0 3.6

Gráficas

Temp. máximas Temp. mínimas Temp. medias Precipitaciones Rachas de viento máximas Velocidades máximas media en intervalos de 10 minutos

Datos horarios

Fecha y hora oficial Temperatura (ºC) Velocidad del viento (km/h) Dirección del viento Racha (km/h) Dirección de racha Precipitación (mm) Presión (hPa) Tendencia (hPa) Humedad (%)
2020-03-29 23:00:00 13.5 12 Sudoeste 17 Sudoeste 0 -- -- 82
2020-03-29 22:00:00 14.6 14 Oeste 30 Sudoeste 0 -- -- 79
2020-03-29 21:00:00 16.1 11 Oeste 14 Oeste 0 -- -- 66
2020-03-29 20:00:00 17.8 9 Sudoeste 10 Oeste 0 -- -- 60
2020-03-29 19:00:00 19.2 6 Oeste 13 Sudoeste 0 -- -- 52
2020-03-29 18:00:00 20.1 7 Sudoeste 14 Oeste 0 -- -- 49
2020-03-29 17:00:00 21 5 Este 9 Este 0 -- -- 43
2020-03-29 16:00:00 19.3 2 Oeste 10 Oeste 0 -- -- 51
2020-03-29 15:00:00 20 4 Este 11 Este 0 -- -- 50
2020-03-29 14:00:00 19.2 3 Sudeste 11 Sudeste 0 -- -- 54
2020-03-29 13:00:00 17.7 3 Sudoeste 13 Noroeste 0 -- -- 61
2020-03-29 12:00:00 15.7 4 Noroeste 9 Norte 0 -- -- 69
2020-03-29 11:00:00 14.1 3 Norte 8 Nordeste 0 -- -- 76
2020-03-29 10:00:00 11.9 4 Nordeste 6 Nordeste 0 -- -- 86
2020-03-29 09:00:00 9.9 0 Calma 4 Sur 0 -- -- 88
2020-03-29 08:00:00 10.5 3 Sudeste 5 Sur 0 -- -- 85
2020-03-29 07:00:00 10.6 3 Sur 10 Sur 0 -- -- 86
2020-03-29 06:00:00 10.7 8 Sur 10 Sur 0 -- -- 85
2020-03-29 05:00:00 10.7 5 Sur 11 Sur 0 -- -- 86
2020-03-29 03:00:00 11.3 4 Sur 9 Sudeste 0 -- -- 84
2020-03-29 01:00:00 11.7 9 Sur 10 Sur 0 -- -- 83
2020-03-29 00:00:00 11.8 8 Sur 15 Sudoeste 0 -- -- 83
2020-03-28 23:00:00 12 12 Sudoeste 17 Sudoeste 0 -- -- 84
2020-03-28 22:00:00 12.8 12 Sur 21 Sur 0 -- -- 79
2020-03-28 21:00:00 14.3 9 Sur 17 Sur 0 -- -- 72
2020-03-28 20:00:00 16.1 8 Sur 15 Sur 0 -- -- 65
2020-03-28 19:00:00 18.1 3 Sudeste 7 Sudeste 0 -- -- 60
2020-03-28 18:00:00 18.4 3 Este 11 Nordeste 0 -- -- 55
2020-03-28 17:00:00 18.9 5 Nordeste 13 Nordeste 0 -- -- 52
2020-03-28 16:00:00 19.5 3 Este 10 Oeste 0 -- -- 50
2020-03-28 15:00:00 18.6 3 Nordeste 12 Oeste 0 -- -- 52
2020-03-28 14:00:00 18 3 Norte 10 Nordeste 0 -- -- 56
2020-03-28 13:00:00 18.1 4 Sudeste 14 Este 0 -- -- 56
2020-03-28 12:00:00 16.7 8 Este 22 Este 0 -- -- 61
2020-03-28 11:00:00 15 8 Nordeste 19 Nordeste 0 -- -- 65
2020-03-28 10:00:00 12.1 10 Nordeste 19 Este 0 -- -- 71
2020-03-28 09:00:00 9.5 12 Este 20 Este 0 -- -- 76
2020-03-28 08:00:00 7.5 10 Este 17 Nordeste 0 -- -- 84
2020-03-28 07:00:00 6.9 10 Este 17 Este 0 -- -- 85
2020-03-28 06:00:00 7.3 9 Este 14 Nordeste 0 -- -- 84
2020-03-28 05:00:00 7.4 6 Este 10 Este 0 -- -- 86
2020-03-28 04:00:00 8 7 Este 10 Este 0 -- -- 84
2020-03-28 03:00:00 8.9 3 Nordeste 9 Nordeste 0 -- -- 80
2020-03-28 02:00:00 9.9 0 Calma 7 Nordeste 0 -- -- 84
2020-03-28 01:00:00 11 3 Sur 7 Sudeste 0 -- -- 79
2020-03-28 00:00:00 11.7 3 Sudeste 8 Sudeste 0 -- -- 78
2020-03-27 23:00:00 12 3 Sur 6 Noroeste 0 -- -- 79
2020-03-27 22:00:00 11.8 4 Noroeste 14 Sudoeste 0 -- -- 78
2020-03-27 21:00:00 11.6 12 Sudoeste 18 Sudoeste 0 -- -- 73
2020-03-27 20:00:00 12.4 14 Sudoeste 20 Sudoeste 0 -- -- 65
2020-03-27 19:00:00 15.6 17 Sudoeste 23 Sudoeste 0 -- -- 55
2020-03-27 18:00:00 17.1 16 Sudoeste 25 Sudoeste 0 -- -- 52
2020-03-27 17:00:00 17.6 15 Oeste 32 Sudoeste 0 -- -- 52
2020-03-27 16:00:00 17.6 18 Oeste 36 Oeste 0 -- -- 56
2020-03-27 15:00:00 17 23 Oeste 40 Oeste 0 -- -- 56
2020-03-27 14:00:00 15.7 24 Sudoeste 39 Sudoeste 0 -- -- 63
2020-03-27 13:00:00 15.2 26 Sudoeste 37 Sudoeste 0 -- -- 61
2020-03-27 12:00:00 13.2 18 Sudoeste 27 Oeste 0 -- -- 77
2020-03-27 11:00:00 10.3 16 Sudoeste 30 Sudoeste 0 -- -- 94
2020-03-27 10:00:00 8.4 14 Sudoeste 26 Sudoeste 0 -- -- 96
2020-03-27 09:00:00 8.2 14 Sudoeste 21 Sudoeste 0 -- -- 97
2020-03-27 08:00:00 8 14 Sudoeste 22 Sudoeste 0 -- -- 96
2020-03-27 07:00:00 8.4 14 Sudoeste 21 Sudoeste 0 -- -- 95
2020-03-27 06:00:00 8.9 12 Sudoeste 17 Sudoeste 0 -- -- 95
2020-03-27 05:00:00 8.2 11 Sur 17 Sudoeste 0 -- -- 94
2020-03-27 04:00:00 8.6 13 Sur 18 Sudoeste 0 -- -- 93
2020-03-27 03:00:00 9.3 13 Sur 18 Sur 0 -- -- 92
2020-03-27 02:00:00 9.9 13 Sur 17 Sur 0 -- -- 88
2020-03-27 01:00:00 10.9 11 Sudoeste 15 Sudoeste 0 -- -- 88
2020-03-27 00:00:00 11.5 6 Sudoeste 15 Sudoeste 0 -- -- 88
2020-03-26 23:00:00 11.9 13 Sur 17 Sur 0 -- -- 89
2020-03-26 22:00:00 12.7 12 Sudoeste 22 Sudoeste 0 -- -- 84
2020-03-26 21:00:00 13.7 14 Oeste 21 Oeste 0 -- -- 71
2020-03-26 20:00:00 16.4 14 Oeste 28 Oeste 0 -- -- 58
2020-03-26 19:00:00 19.5 21 Oeste 35 Noroeste 0 -- -- 50
2020-03-26 18:00:00 20.4 23 Oeste 39 Oeste 0 -- -- 46
2020-03-26 17:00:00 22 23 Oeste 36 Sudoeste 0 -- -- 44
2020-03-26 16:00:00 21.4 22 Sudoeste 32 Sudoeste 0 -- -- 54
2020-03-26 15:00:00 20.5 19 Oeste 28 Oeste 0 -- -- 59
2020-03-26 14:00:00 19 17 Sudoeste 27 Sudoeste 0 -- -- 67
2020-03-26 13:00:00 17.9 16 Sudoeste 28 Sudoeste 0 -- -- 70
2020-03-26 12:00:00 15.7 19 Sudoeste 29 Sudoeste 0 -- -- 80
2020-03-26 11:00:00 13.7 13 Sudoeste 20 Oeste 0 -- -- 90
2020-03-26 10:00:00 12.7 9 Oeste 21 Oeste 0 -- -- 93
2020-03-26 09:00:00 11.8 17 Sudoeste 24 Sudoeste 0 -- -- 92
2020-03-26 08:00:00 11.1 13 Sudoeste 18 Sudoeste 0 -- -- 93
2020-03-26 07:00:00 10.8 11 Sudoeste 21 Sudoeste 0 -- -- 93
2020-03-26 06:00:00 10.9 11 Sudoeste 19 Sudoeste 0 -- -- 94
2020-03-26 05:00:00 10.8 14 Sudoeste 19 Sudoeste 0 -- -- 94
2020-03-26 04:00:00 10.9 13 Sudoeste 21 Sudoeste 0 -- -- 94
2020-03-26 03:00:00 11.3 15 Sudoeste 26 Sudoeste 0 -- -- 94
2020-03-26 02:00:00 12.1 17 Sudoeste 22 Sudoeste 0 -- -- 94
2020-03-26 01:00:00 12.1 15 Sudoeste 25 Oeste 0 -- -- 93
2020-03-26 00:00:00 11.7 17 Sudoeste 23 Oeste 0 -- -- 93
2020-03-25 23:00:00 11.6 16 Oeste 27 Sudoeste 0 -- -- 91
2020-03-25 22:00:00 12.6 19 Sudoeste 40 Sudoeste 0.2 -- -- 89
2020-03-25 21:00:00 13.2 32 Sudoeste 45 Sudoeste 2 -- -- 90
2020-03-25 20:00:00 15.3 21 Oeste 32 Sudoeste 0 -- -- 77
2020-03-25 19:00:00 16.5 21 Sudoeste 30 Sudoeste 0 -- -- 70
2020-03-25 18:00:00 17.8 17 Sudoeste 27 Sudoeste 0 -- -- 66
2020-03-25 17:00:00 18.8 17 Sudoeste 31 Sudoeste 0 -- -- 62
2020-03-25 16:00:00 19.8 13 Sudoeste 27 Oeste 0 -- -- 53
2020-03-25 15:00:00 18.6 12 Oeste 23 Sudoeste 0 -- -- 55
2020-03-25 14:00:00 18.9 10 Oeste 20 Oeste 0 -- -- 55
2020-03-25 13:00:00 17.5 5 Noroeste 14 Noroeste 0 -- -- 55
2020-03-25 12:00:00 17.1 5 Nordeste 13 Norte 0 -- -- 56
2020-03-25 11:00:00 15.8 5 Nordeste 12 Nordeste 0 -- -- 62
2020-03-25 10:00:00 13 4 Este 12 Este 0 -- -- 70
2020-03-25 09:00:00 11.7 5 Este 10 Este 0 -- -- 73
2020-03-25 08:00:00 10.9 5 Nordeste 12 Nordeste 0 -- -- 78
2020-03-25 07:00:00 11.3 3 Nordeste 10 Nordeste 0 -- -- 81
2020-03-25 06:00:00 11.6 5 Nordeste 10 Este 0 -- -- 77
2020-03-25 05:00:00 11.8 5 Este 16 Nordeste 0 -- -- 75
2020-03-25 04:00:00 12 10 Este 17 Este 0 -- -- 73
2020-03-25 03:00:00 12.8 9 Nordeste 23 Nordeste 0 -- -- 71
2020-03-25 02:00:00 13.5 10 Nordeste 21 Nordeste 0 -- -- 69
2020-03-25 01:00:00 13.7 9 Nordeste 21 Nordeste 0 -- -- 69
2020-03-25 00:00:00 13.6 13 Este 23 Este 0 -- -- 71
2020-03-24 23:00:00 13.9 8 Nordeste 22 Nordeste 0 -- -- 70
2020-03-24 22:00:00 14.6 4 Nordeste 12 Este 0 -- -- 73
2020-03-24 21:00:00 16 5 Este 11 Nordeste 0 -- -- 70
2020-03-24 20:00:00 17.2 3 Nordeste 13 Nordeste 0 -- -- 66
2020-03-24 19:00:00 18.5 7 Nordeste 15 Nordeste 0 -- -- 60
2020-03-24 18:00:00 19.4 8 Nordeste 28 Nordeste 0 -- -- 56
2020-03-24 17:00:00 19.9 11 Nordeste 25 Nordeste 0 -- -- 53
2020-03-24 16:00:00 19.8 6 Nordeste 24 Este 0 -- -- 57
2020-03-24 15:00:00 19.7 13 Este 23 Este 0 -- -- 56
2020-03-24 14:00:00 19.1 12 Nordeste 28 Nordeste 0 -- -- 56
2020-03-24 13:00:00 18 14 Nordeste 32 Este 0 -- -- 60
2020-03-24 12:00:00 16.7 16 Este 31 Nordeste 0 -- -- 62
2020-03-24 11:00:00 15.4 17 Este 33 Este 0 -- -- 65
2020-03-24 10:00:00 13.9 14 Nordeste 28 Nordeste 0 -- -- 72
2020-03-24 09:00:00 11.6 6 Nordeste 16 Nordeste 0 -- -- 85
2020-03-24 08:00:00 9.3 6 Nordeste 13 Nordeste 0 -- -- 92
2020-03-24 07:00:00 9.4 5 Nordeste 14 Nordeste 0 -- -- 91
2020-03-24 06:00:00 9.5 6 Nordeste 10 Nordeste 0 -- -- 93
2020-03-24 05:00:00 9.8 5 Nordeste 14 Norte 0 -- -- 94
2020-03-24 04:00:00 9.6 5 Nordeste 12 Norte 0 -- -- 94
2020-03-24 03:00:00 10.1 5 Nordeste 14 Nordeste 0 -- -- 93
2020-03-24 02:00:00 10 5 Nordeste 13 Nordeste 0 -- -- 91
2020-03-24 01:00:00 10.4 6 Nordeste 13 Este 0 -- -- 89
2020-03-24 00:00:00 10.8 5 Este 14 Nordeste 0 -- -- 88
2020-03-23 23:00:00 10.8 8 Nordeste 22 Nordeste 0 -- -- 88
2020-03-23 22:00:00 11.4 9 Nordeste 21 Nordeste 0 -- -- 82
2020-03-23 21:00:00 12.2 8 Nordeste 23 Este 0 -- -- 78
2020-03-23 20:00:00 12.9 9 Este 30 Este 0 -- -- 74
2020-03-23 19:00:00 15 14 Este 26 Sudeste 0 -- -- 64
2020-03-23 18:00:00 15.2 11 Sudeste 28 Sudeste 0 -- -- 65
2020-03-23 17:00:00 14.8 20 Sudeste 36 Sudeste 0 -- -- 67
2020-03-23 16:00:00 18.9 9 Nordeste 20 Nordeste 0 -- -- 49
2020-03-23 15:00:00 17.1 9 Este 18 Este 0 -- -- 56
2020-03-23 14:00:00 17.2 12 Este 25 Este 0 -- -- 57
2020-03-23 13:00:00 15.4 9 Este 21 Este 0 -- -- 64
2020-03-23 12:00:00 16.1 9 Este 23 Este 0 -- -- 62
2020-03-23 11:00:00 14.3 9 Nordeste 21 Este 0 -- -- 72
2020-03-23 10:00:00 11.3 5 Nordeste 14 Este 0 -- -- 86
2020-03-23 09:00:00 9.7 10 Este 17 Este 0 -- -- 92
2020-03-23 08:00:00 8.7 8 Este 12 Este 0 -- -- 94
2020-03-23 07:00:00 8.4 5 Este 13 Este 0 -- -- 94
2020-03-23 06:00:00 8.4 3 Nordeste 8 Nordeste 0 -- -- 94
2020-03-23 05:00:00 8.7 4 Este 7 Sudeste 0 -- -- 93
2020-03-23 04:00:00 8.7 3 Este 7 Este 0 -- -- 93
2020-03-23 03:00:00 8.3 4 Este 9 Este 0 -- -- 92
2020-03-23 02:00:00 8.6 5 Este 9 Este 0 -- -- 91
2020-03-23 01:00:00 9.6 5 Este 6 Este 0 -- -- 90
2020-03-23 00:00:00 10 3 Sudeste 6 Sur 0 -- -- 88
2020-03-22 23:00:00 10.7 3 Sur 8 Sudeste 0 -- -- 83
2020-03-22 22:00:00 11.2 3 Sudeste 6 Sur 0 -- -- 80
2020-03-22 21:00:00 11.6 3 Sudeste 9 Sur 0 -- -- 81
2020-03-22 20:00:00 12.3 4 Sur 6 Sudoeste 0 -- -- 78
2020-03-22 19:00:00 13.6 2 Sur 4 Sudoeste 0 -- -- 73
2020-03-22 18:00:00 15 4 Sudoeste 9 Sudoeste 0 -- -- 65
2020-03-22 17:00:00 14.9 5 Sudoeste 10 Oeste 0 -- -- 65
2020-03-22 16:00:00 13.4 3 Sur 13 Sur 0 -- -- 73
2020-03-22 15:00:00 13.1 2 Sur 10 Nordeste 0 -- -- 71
2020-03-22 14:00:00 12.1 6 Nordeste 13 Norte 0.6 -- -- 88
2020-03-22 13:00:00 10.6 4 Nordeste 14 Norte 2 -- -- 94
2020-03-22 12:00:00 10.1 6 Nordeste 14 Nordeste 0.4 -- -- 94
2020-03-22 11:00:00 9.4 5 Nordeste 13 Nordeste 6.6 -- -- 95
2020-03-22 10:00:00 9.6 4 Nordeste 12 Este 1 -- -- 95
2020-03-22 09:00:00 9.4 5 Este 11 Este 0.6 -- -- 95
2020-03-22 08:00:00 9.3 4 Este 9 Este 0.4 -- -- 95
2020-03-22 07:00:00 9.2 3 Este 7 Este 0 -- -- 94
2020-03-22 06:00:00 9.1 3 Este 9 Este 0 -- -- 94
2020-03-22 05:00:00 9.2 3 Nordeste 5 Nordeste 0 -- -- 94
2020-03-22 04:00:00 8.9 4 Norte 9 Este 0 -- -- 93
2020-03-22 03:00:00 8.7 4 Este 9 Este 0 -- -- 94
2020-03-22 02:00:00 8.7 4 Este 13 Sudeste 0 -- -- 93
2020-03-22 01:00:00 8.3 6 Sudeste 13 Sudeste 0.8 -- -- 91
2020-03-22 00:00:00 8.7 9 Sur 22 Sudeste 1.6 -- -- 90
2020-03-21 23:00:00 9.1 6 Sudeste 13 Sudeste 0 -- -- 90
2020-03-21 22:00:00 8.6 5 Sudeste 10 Sudeste 0 -- -- 90
2020-03-21 21:00:00 8.8 6 Sur 12 Sudeste 0 -- -- 92
2020-03-21 20:00:00 9.4 10 Sudoeste 32 Oeste 0.8 -- -- 90
2020-03-21 19:00:00 10.6 13 Sudoeste 24 Sur 0 -- -- 90
2020-03-21 18:00:00 10.2 12 Sur 36 Sudoeste 5.4 -- -- 91
2020-03-21 17:00:00 12.7 13 Sudeste 30 Sudeste 0 -- -- 77
2020-03-21 16:00:00 12.9 11 Sudeste 23 Sudeste 0.2 -- -- 81
2020-03-21 15:00:00 11.4 10 Sur 21 Sur 0.6 -- -- 89
2020-03-21 14:00:00 10.9 12 Sudoeste 48 Sudoeste 3.2 -- -- 89
2020-03-21 13:00:00 14.3 18 Sudoeste 46 Sudoeste 0 -- -- 70
2020-03-21 12:00:00 13.8 5 Sudoeste 20 Sur 0 -- -- 75
2020-03-21 11:00:00 13.6 11 Sur 21 Sudoeste 0 -- -- 74
2020-03-21 10:00:00 11.8 13 Sur 19 Sudoeste 0 -- -- 92
2020-03-21 09:00:00 10.1 8 Sur 14 Sur 0 -- -- 96
2020-03-21 08:00:00 8.7 6 Sur 10 Sur 0.2 -- -- 96
2020-03-21 07:00:00 9 7 Sur 12 Sudoeste 0 -- -- 95
2020-03-21 06:00:00 9.7 11 Sudoeste 19 Sudoeste 0 -- -- 95
2020-03-21 05:00:00 10 15 Sudoeste 29 Sudoeste 0 -- -- 95
2020-03-21 04:00:00 10.5 22 Sudoeste 31 Sudoeste 2.4 -- -- 95
2020-03-21 03:00:00 11 16 Sudoeste 42 Sudoeste 7.6 -- -- 94
2020-03-21 02:00:00 12 25 Sudoeste 36 Sudoeste 4.8 -- -- 92
2020-03-21 01:00:00 15 6 Sur 23 Sur 0 -- -- 73
2020-03-21 00:00:00 14.9 8 Sudeste 17 Sudeste 0 -- -- 72
2020-03-20 23:00:00 15.5 10 Sudeste 25 Sudeste 0 -- -- 68
2020-03-20 22:00:00 15.5 16 Sudeste 31 Sudeste 0 -- -- 67
2020-03-20 21:00:00 15.5 9 Sudeste 22 Sudeste 0 -- -- 65
2020-03-20 20:00:00 16.6 10 Este 17 Este 0 -- -- 61
2020-03-20 19:00:00 18 10 Sudeste 18 Sudeste 0 -- -- 56
2020-03-20 18:00:00 19.8 8 Sur 19 Sudeste 0 -- -- 52
2020-03-20 17:00:00 20.1 11 Sur 23 Sur 0 -- -- 53
2020-03-20 16:00:00 20.3 5 Sudeste 15 Sur 0 -- -- 52
2020-03-20 15:00:00 20.7 7 Sur 15 Sudoeste 0 -- -- 50
2020-03-20 14:00:00 20.3 5 Sur 15 Sur 0 -- -- 52
2020-03-20 13:00:00 18.8 7 Sur 14 Sudeste 0 -- -- 56
2020-03-20 12:00:00 18.6 8 Sudeste 21 Este 0 -- -- 57
2020-03-20 11:00:00 17.4 12 Este 24 Sudeste 0 -- -- 63
2020-03-20 10:00:00 15.7 15 Sudeste 28 Este 0 -- -- 68
2020-03-20 09:00:00 13.9 14 Este 27 Este 0 -- -- 74
2020-03-20 08:00:00 12.2 14 Este 27 Este 0 -- -- 77
2020-03-20 07:00:00 12 10 Este 23 Este 0 -- -- 77
2020-03-20 06:00:00 11.8 12 Este 19 Este 0 -- -- 83
2020-03-20 05:00:00 12.1 6 Este 10 Sudeste 0 -- -- 81
2020-03-20 04:00:00 13.1 5 Sudeste 10 Sudeste 0 -- -- 78
2020-03-20 03:00:00 13.6 4 Sur 8 Sur 0 -- -- 76
2020-03-20 02:00:00 13.4 8 Sur 15 Sudeste 0 -- -- 77
2020-03-20 01:00:00 14.1 6 Sudeste 19 Sudeste 0 -- -- 74
2020-03-20 00:00:00 14.2 12 Sudeste 19 Sudeste 0 -- -- 74
2020-03-19 23:00:00 14.4 9 Sudeste 19 Sudeste 0 -- -- 73
2020-03-19 22:00:00 14.9 13 Sudeste 25 Este 0 -- -- 71
2020-03-19 21:00:00 15.7 12 Sudeste 21 Este 0 -- -- 66
2020-03-19 20:00:00 16.5 13 Este 26 Este 0 -- -- 63
2020-03-19 19:00:00 17.8 10 Este 26 Sudeste 0 -- -- 61
2020-03-19 18:00:00 18.7 15 Este 36 Este 0 -- -- 57
2020-03-19 17:00:00 19.6 19 Este 34 Este 0 -- -- 54
2020-03-19 16:00:00 22 19 Este 39 Este 0 -- -- 49
2020-03-19 15:00:00 21.3 18 Este 33 Este 0 -- -- 50
2020-03-19 14:00:00 20.4 17 Este 42 Este 0 -- -- 52
2020-03-19 13:00:00 20 20 Este 35 Este 0 -- -- 48
2020-03-19 12:00:00 18.8 15 Este 34 Este 0 -- -- 56
2020-03-19 11:00:00 16.5 22 Este 36 Este 0 -- -- 63
2020-03-19 10:00:00 14.7 22 Este 36 Este 0 -- -- 71
2020-03-19 09:00:00 13.5 17 Este 31 Este 0 -- -- 78
2020-03-19 08:00:00 13.4 18 Este 39 Este 0 -- -- 75
2020-03-19 07:00:00 13.3 18 Este 27 Este 0 -- -- 75
2020-03-19 06:00:00 13.1 13 Este 24 Este 0 -- -- 77
2020-03-19 05:00:00 12.9 12 Este 20 Nordeste 0 -- -- 78
2020-03-19 04:00:00 13.5 11 Este 26 Este 0 -- -- 76
2020-03-19 03:00:00 14.1 16 Sudeste 26 Este 0 -- -- 74
2020-03-19 02:00:00 13.9 8 Este 18 Este 0 -- -- 75
2020-03-19 01:00:00 14.3 11 Este 22 Este 0 -- -- 74
2020-03-19 00:00:00 14.6 11 Sudeste 28 Sudeste 0 -- -- 73
2020-03-18 23:00:00 14.9 15 Sudeste 26 Este 0 -- -- 71
2020-03-18 22:00:00 15.1 10 Sudeste 18 Sudeste 0 -- -- 67
2020-03-18 21:00:00 15.9 10 Sudeste 19 Este 0 -- -- 63
2020-03-18 20:00:00 17.5 12 Sudeste 23 Sudeste 0 -- -- 58
2020-03-18 19:00:00 19.4 10 Sudeste 26 Sudeste 0 -- -- 54
2020-03-18 18:00:00 21.6 14 Sudeste 26 Sudeste 0 -- -- 47
2020-03-18 17:00:00 22.8 12 Sudeste 26 Sudeste 0 -- -- 46
2020-03-18 16:00:00 23.3 11 Sudeste 24 Este 0 -- -- 47
2020-03-18 15:00:00 23.4 10 Este 22 Sudeste 0 -- -- 46
2020-03-18 14:00:00 22.2 11 Este 28 Este 0 -- -- 50
2020-03-18 13:00:00 20.8 11 Este 28 Este 0 -- -- 53
2020-03-18 12:00:00 20.1 15 Este 27 Este 0 -- -- 53
2020-03-18 11:00:00 18.1 17 Este 31 Este 0 -- -- 58
2020-03-18 10:00:00 16.2 15 Nordeste 36 Este 0 -- -- 64
2020-03-18 09:00:00 14.1 15 Este 25 Nordeste 0 -- -- 72
2020-03-18 08:00:00 12 13 Nordeste 23 Nordeste 0 -- -- 80
2020-03-18 07:00:00 11.5 11 Este 18 Este 0 -- -- 84
2020-03-18 06:00:00 12.1 12 Este 30 Nordeste 0 -- -- 82
2020-03-18 05:00:00 11.9 8 Nordeste 19 Este 0 -- -- 82
2020-03-18 04:00:00 11.3 6 Nordeste 13 Nordeste 0 -- -- 83
2020-03-18 03:00:00 11.3 4 Nordeste 10 Este 0 -- -- 81
2020-03-18 02:00:00 12 7 Este 24 Sudeste 0 -- -- 79
2020-03-18 01:00:00 11.6 9 Sudeste 24 Este 0 -- -- 77
2020-03-18 00:00:00 13.2 15 Este 27 Este 0 -- -- 69
2020-03-17 23:00:00 12.7 12 Nordeste 26 Nordeste 0 -- -- 71
2020-03-17 22:00:00 11.6 9 Nordeste 17 Nordeste 0 -- -- 74
2020-03-17 21:00:00 13 4 Nordeste 9 Nordeste 0 -- -- 70
2020-03-17 20:00:00 14.3 3 Nordeste 8 Nordeste 0 -- -- 64
2020-03-17 19:00:00 15.6 3 Este 14 Este 0 -- -- 62
2020-03-17 18:00:00 16.7 7 Este 24 Este 0 -- -- 47
2020-03-17 17:00:00 17.4 10 Este 27 Este 0 -- -- 49
2020-03-17 16:00:00 16.8 9 Este 24 Este 0 -- -- 48
2020-03-17 15:00:00 15.8 10 Este 26 Este 0 -- -- 55
2020-03-17 14:00:00 15.8 15 Este 47 Sudeste 0.2 -- -- 54
2020-03-17 13:00:00 15.4 23 Este 41 Sudeste 0 -- -- 57
2020-03-17 12:00:00 12.8 15 Este 27 Este 0 -- -- 74
2020-03-17 11:00:00 11 13 Este 31 Este 0 -- -- 80
2020-03-17 10:00:00 8.5 15 Este 29 Este 0 -- -- 90
2020-03-17 09:00:00 7.8 11 Este 27 Este 0.4 -- -- 93
2020-03-17 08:00:00 7.5 13 Este 21 Este 0 -- -- 92
2020-03-17 07:00:00 7.3 8 Este 18 Este 0.6 -- -- 91
2020-03-17 06:00:00 7.3 8 Sudeste 17 Sudeste 0 -- -- 89
2020-03-17 05:00:00 7.5 4 Sudeste 19 Sur 0.6 -- -- 92
2020-03-17 04:00:00 7.6 5 Sudeste 10 Sur 0 -- -- 91
2020-03-17 03:00:00 7.9 5 Sudeste 10 Sudeste 0.2 -- -- 90
2020-03-17 02:00:00 8 5 Sur 9 Sur 0 -- -- 89
2020-03-17 01:00:00 8.4 5 Sudoeste 8 Sudoeste 0 -- -- 85
2020-03-17 00:00:00 8.3 5 Noroeste 11 Noroeste 0 -- -- 84
2020-03-16 23:00:00 8.4 9 Noroeste 14 Oeste 0 -- -- 84
2020-03-16 22:00:00 8.4 4 Noroeste 14 Noroeste 0 -- -- 87
2020-03-16 21:00:00 8.2 11 Noroeste 29 Noroeste 0.6 -- -- 86
2020-03-16 20:00:00 9.7 15 Noroeste 33 Norte 0 -- -- 71
2020-03-16 19:00:00 11.1 23 Norte 35 Norte 0 -- -- 57
2020-03-16 18:00:00 12.5 15 Noroeste 34 Noroeste 0 -- -- 49
2020-03-16 17:00:00 12.9 10 Noroeste 27 Noroeste 0 -- -- 47
2020-03-16 16:00:00 14.2 15 Noroeste 28 Noroeste 0 -- -- 44
2020-03-16 15:00:00 13.3 16 Noroeste 32 Noroeste 0 -- -- 44
2020-03-16 14:00:00 13.5 17 Noroeste 33 Oeste 0 -- -- 44
2020-03-16 13:00:00 14.1 20 Noroeste 37 Oeste 0 -- -- 45
2020-03-16 12:00:00 12.9 22 Oeste 34 Oeste 0 -- -- 48
2020-03-16 11:00:00 11.5 14 Noroeste 24 Noroeste 0 -- -- 53
2020-03-16 10:00:00 10.1 9 Noroeste 21 Noroeste 0 -- -- 57
2020-03-16 09:00:00 8.5 15 Noroeste 22 Noroeste 0 -- -- 62
2020-03-16 08:00:00 5.7 11 Oeste 19 Noroeste 0 -- -- 69
2020-03-16 07:00:00 7.3 16 Noroeste 27 Noroeste 0 -- -- 60
2020-03-16 06:00:00 9.3 17 Noroeste 27 Noroeste 0 -- -- 56
2020-03-16 05:00:00 10.3 19 Noroeste 37 Noroeste 0 -- -- 53
2020-03-16 04:00:00 11.1 19 Noroeste 35 Noroeste 0 -- -- 56
2020-03-16 03:00:00 12.3 15 Noroeste 33 Norte 0 -- -- 59
2020-03-16 02:00:00 13.3 25 Noroeste 35 Noroeste 0 -- -- 70
2020-03-16 01:00:00 13.8 18 Sudoeste 29 Sudoeste 0 -- -- 87
2020-03-16 00:00:00 13.2 18 Sudoeste 24 Sudoeste 0 -- -- 86
2020-03-15 23:00:00 14.4 17 Sudoeste 24 Sudoeste 0 -- -- 81
2020-03-15 22:00:00 15.1 18 Sudoeste 26 Sudoeste 0 -- -- 78
2020-03-15 21:00:00 16 16 Sudoeste 26 Oeste 0 -- -- 72
2020-03-15 20:00:00 17.3 10 Oeste 19 Oeste 0 -- -- 68
2020-03-15 19:00:00 19.9 13 Oeste 23 Sudoeste 0 -- -- 59
2020-03-15 18:00:00 22 13 Oeste 26 Oeste 0 -- -- 53
2020-03-15 17:00:00 22.7 15 Sudoeste 23 Sudoeste 0 -- -- 51
2020-03-15 16:00:00 22 12 Oeste 30 Sudoeste 0 -- -- 55
2020-03-15 15:00:00 22.2 10 Oeste 26 Sudoeste 0 -- -- 58
2020-03-15 14:00:00 20.8 8 Sudoeste 15 Oeste 0 -- -- 61
2020-03-15 13:00:00 19.8 6 Sudoeste 20 Oeste 0 -- -- 64
2020-03-15 12:00:00 18.6 5 Oeste 13 Sur 0 -- -- 69
2020-03-15 11:00:00 16.8 6 Sur 11 Sur 0 -- -- 77
2020-03-15 10:00:00 14.2 7 Sur 9 Sur 0 -- -- 87
2020-03-15 09:00:00 12.8 4 Sur 7 Sudeste 0 -- -- 93
2020-03-15 08:00:00 11.5 2 Sudeste 4 Sur 0 -- -- 93
2020-03-15 07:00:00 12 2 Sur 9 Sur 0 -- -- 92
2020-03-15 06:00:00 11.8 5 Sur 7 Sur 0 -- -- 92
2020-03-15 05:00:00 11.6 0 Calma 4 Norte 0 -- -- 90
2020-03-15 04:00:00 12.3 0 Calma 10 Sur 0 -- -- 86
2020-03-15 03:00:00 12.9 10 Sur 17 Sur 0 -- -- 88
2020-03-15 02:00:00 12.8 11 Sur 17 Sur 0 -- -- 87
2020-03-15 01:00:00 13.1 11 Sur 21 Sur 0 -- -- 85
2020-03-15 00:00:00 15.4 12 Sudoeste 19 Sudoeste 0 -- -- 73
2020-03-14 23:00:00 15.8 3 Oeste 5 Noroeste 0 -- -- 77
2020-03-14 22:00:00 16.1 4 Noroeste 6 Noroeste 0 -- -- 75
2020-03-14 21:00:00 16.8 4 Noroeste 6 Noroeste 0 -- -- 75
2020-03-14 20:00:00 18.1 3 Noroeste 12 Oeste 0 -- -- 71
2020-03-14 19:00:00 20.5 8 Oeste 12 Sudoeste 0 -- -- 65
2020-03-14 18:00:00 21.9 8 Sudoeste 12 Sudoeste 0 -- -- 60
2020-03-14 17:00:00 21.7 6 Oeste 13 Oeste 0 -- -- 58
2020-03-14 16:00:00 20.9 3 Sudoeste 16 Sudoeste 0 -- -- 63
2020-03-14 15:00:00 19.4 6 Sudoeste 14 Sudoeste 0 -- -- 66
2020-03-14 14:00:00 17.3 5 Sudoeste 12 Sudoeste 0 -- -- 75
2020-03-14 13:00:00 14.4 2 Sur 9 Oeste 0 -- -- 92
2020-03-14 12:00:00 13.2 5 Oeste 9 Oeste 0 -- -- 96
2020-03-14 11:00:00 12.6 5 Noroeste 8 Oeste 0 -- -- 97
2020-03-14 10:00:00 12 5 Sudoeste 12 Sudoeste 0 -- -- 97
2020-03-14 09:00:00 11.7 5 Sudoeste 10 Sudoeste 0 -- -- 97
2020-03-14 08:00:00 11 6 Sudoeste 12 Sudoeste 0.2 -- -- 97
2020-03-14 07:00:00 11.1 4 Oeste 9 Sudoeste 0 -- -- 97
2020-03-14 06:00:00 11.4 5 Sudoeste 11 Sudoeste 0 -- -- 96
2020-03-14 05:00:00 11.4 4 Sudoeste 9 Sudoeste 0 -- -- 96
2020-03-14 04:00:00 11.7 7 Sudoeste 13 Sudoeste 0 -- -- 95
2020-03-14 03:00:00 12 9 Sudoeste 16 Sudoeste 0 -- -- 95
2020-03-14 02:00:00 11.4 9 Sudoeste 12 Sudoeste 0 -- -- 93
2020-03-14 01:00:00 11.8 10 Sur 19 Sur 0 -- -- 93
2020-03-14 00:00:00 12.3 14 Sudoeste 21 Sur 0 -- -- 91
2020-03-13 23:00:00 13.2 13 Sudoeste 18 Sudoeste 0 -- -- 89
2020-03-13 22:00:00 14.5 14 Sudoeste 20 Sudoeste 0 -- -- 85
2020-03-13 21:00:00 15.5 13 Sudoeste 22 Sudoeste 0 -- -- 82
2020-03-13 20:00:00 16.7 12 Oeste 19 Sudoeste 0 -- -- 78
2020-03-13 19:00:00 19.7 14 Sudoeste 26 Sudoeste 0 -- -- 69
2020-03-13 18:00:00 21.7 19 Sudoeste 26 Oeste 0 -- -- 60
2020-03-13 17:00:00 22.6 16 Sudoeste 28 Sudoeste 0 -- -- 54
2020-03-13 16:00:00 22.2 15 Sudoeste 23 Sudoeste 0 -- -- 55
2020-03-13 15:00:00 21 14 Sudoeste 25 Sudoeste 0 -- -- 59
2020-03-13 14:00:00 19.1 13 Sudoeste 24 Sudoeste 0 -- -- 64
2020-03-13 13:00:00 17.1 12 Sudoeste 17 Oeste 0 -- -- 72
2020-03-13 12:00:00 14.6 7 Oeste 17 Sudoeste 0 -- -- 82
2020-03-13 11:00:00 13.4 9 Sudoeste 15 Oeste 0 -- -- 87
2020-03-13 10:00:00 12.7 9 Sudoeste 14 Sudoeste 0 -- -- 93
2020-03-13 09:00:00 12.3 6 Sudoeste 14 Sudoeste 0 -- -- 95
2020-03-13 08:00:00 11.9 8 Sudoeste 15 Sudoeste 0 -- -- 96
2020-03-13 07:00:00 11.9 8 Sudoeste 17 Oeste 0 -- -- 96
2020-03-13 06:00:00 12.2 10 Oeste 14 Sudoeste 0 -- -- 96
2020-03-13 05:00:00 11.8 6 Oeste 11 Sudoeste 0 -- -- 95
2020-03-13 04:00:00 12.2 5 Sudoeste 10 Sudoeste 0 -- -- 95
2020-03-13 03:00:00 11.9 10 Sudoeste 12 Sudoeste 0 -- -- 93
2020-03-13 02:00:00 12.3 7 Sudoeste 16 Sur 0 -- -- 92
2020-03-13 01:00:00 12.5 12 Sur 14 Sur 0 -- -- 90
2020-03-13 00:00:00 13.1 8 Sudoeste 15 Sur 0 -- -- 85
2020-03-12 23:00:00 13.6 13 Sur 18 Sur 0 -- -- 82
2020-03-12 22:00:00 15 14 Sudoeste 19 Sudoeste 0 -- -- 77
2020-03-12 21:00:00 15.3 13 Sudoeste 20 Sudoeste 0 -- -- 72
2020-03-12 20:00:00 17.8 12 Oeste 22 Oeste 0 -- -- 64
2020-03-12 19:00:00 20.7 15 Oeste 26 Oeste 0 -- -- 53
2020-03-12 18:00:00 23.7 20 Oeste 29 Sudoeste 0 -- -- 50
2020-03-12 17:00:00 24.8 18 Oeste 33 Oeste 0 -- -- 51
2020-03-12 16:00:00 24.7 20 Oeste 29 Sudoeste 0 -- -- 48
2020-03-12 15:00:00 25.2 14 Sudoeste 27 Oeste 0 -- -- 43
2020-03-12 14:00:00 23.9 11 Oeste 18 Oeste 0 -- -- 43
2020-03-12 13:00:00 22.6 10 Oeste 15 Oeste 0 -- -- 46
2020-03-12 12:00:00 20.2 8 Oeste 13 Sudoeste 0 -- -- 55
2020-03-12 11:00:00 17.8 8 Sudoeste 12 Sudoeste 0 -- -- 60
2020-03-12 10:00:00 15.1 7 Sudoeste 14 Sudoeste 0 -- -- 65
2020-03-12 09:00:00 13.4 8 Sur 12 Sur 0 -- -- 67
2020-03-12 08:00:00 13.4 5 Sur 6 Sudoeste 0 -- -- 62
2020-03-12 07:00:00 12.5 0 Calma 6 Sudeste 0 -- -- 64
2020-03-12 06:00:00 13.5 3 Sudoeste 7 Sudoeste 0 -- -- 61
2020-03-12 05:00:00 13.6 4 Sur 9 Sur 0 -- -- 64
2020-03-12 04:00:00 14.6 7 Este 13 Este 0 -- -- 64
2020-03-12 03:00:00 15.5 6 Este 9 Este 0 -- -- 61
2020-03-12 02:00:00 16.2 4 Nordeste 9 Nordeste 0 -- -- 56
2020-03-12 01:00:00 16.9 3 Norte 8 Oeste 0 -- -- 50
2020-03-12 00:00:00 18.8 4 Oeste 24 Este 0 -- -- 45
2020-03-11 23:00:00 20.2 13 Sudeste 24 Este 0 -- -- 39
2020-03-11 22:00:00 21.2 13 Este 24 Sudeste 0 -- -- 37
2020-03-11 21:00:00 21.3 12 Este 21 Este 0 -- -- 38
2020-03-11 20:00:00 21.8 10 Este 16 Este 0 -- -- 40
2020-03-11 19:00:00 25.5 9 Este 23 Este 0 -- -- 33
2020-03-11 18:00:00 27.4 13 Este 28 Este 0 -- -- 30
2020-03-11 17:00:00 28.7 14 Este 32 Este 0 -- -- 27
2020-03-11 16:00:00 29.5 17 Sudeste 35 Este 0 -- -- 28
2020-03-11 15:00:00 28.8 15 Este 29 Este 0 -- -- 29
2020-03-11 14:00:00 27.3 16 Este 30 Este 0 -- -- 36
2020-03-11 13:00:00 25.8 14 Este 25 Este 0 -- -- 39
2020-03-11 12:00:00 23.7 11 Nordeste 25 Este 0 -- -- 45
2020-03-11 11:00:00 20.3 15 Nordeste 27 Este 0 -- -- 51
2020-03-11 10:00:00 16.9 13 Nordeste 24 Este 0 -- -- 58
2020-03-11 09:00:00 12.8 8 Nordeste 17 Este 0 -- -- 72
2020-03-11 08:00:00 9.5 6 Nordeste 11 Nordeste 0 -- -- 76
2020-03-11 07:00:00 10.1 6 Nordeste 14 Este 0 -- -- 71
2020-03-11 06:00:00 10.7 9 Este 16 Este 0 -- -- 69
2020-03-11 05:00:00 11.2 8 Este 15 Este 0 -- -- 69
2020-03-11 04:00:00 11.4 7 Este 14 Este 0 -- -- 69
2020-03-11 03:00:00 12.2 7 Este 13 Este 0 -- -- 66
2020-03-11 02:00:00 13.3 7 Este 12 Nordeste 0 -- -- 62
2020-03-11 01:00:00 13.8 7 Este 10 Este 0 -- -- 60
2020-03-11 00:00:00 15.4 6 Este 11 Este 0 -- -- 55
2020-03-10 23:00:00 16.7 6 Sudeste 12 Sudeste 0 -- -- 52
2020-03-10 22:00:00 18.3 8 Sudeste 16 Sudeste 0 -- -- 48
2020-03-10 21:00:00 19.6 10 Sudeste 18 Sudeste 0 -- -- 46
2020-03-10 20:00:00 21.5 7 Este 12 Sudeste 0 -- -- 41
2020-03-10 19:00:00 24.3 6 Sudeste 15 Este 0 -- -- 40
2020-03-10 18:00:00 26.1 9 Este 21 Este 0 -- -- 35
2020-03-10 17:00:00 26.5 9 Este 20 Este 0 -- -- 34
2020-03-10 16:00:00 26 11 Este 22 Este 0 -- -- 33
2020-03-10 15:00:00 25.4 12 Nordeste 27 Nordeste 0 -- -- 33
2020-03-10 14:00:00 24.1 12 Nordeste 27 Este 0 -- -- 34
2020-03-10 13:00:00 22.7 12 Nordeste 33 Nordeste 0 -- -- 35
2020-03-10 12:00:00 21 13 Nordeste 28 Nordeste 0 -- -- 38
2020-03-10 11:00:00 18.5 14 Nordeste 30 Nordeste 0 -- -- 42
2020-03-10 10:00:00 15.9 12 Nordeste 27 Nordeste 0 -- -- 52
2020-03-10 09:00:00 12.4 12 Nordeste 25 Nordeste 0 -- -- 62
2020-03-10 08:00:00 10.4 7 Nordeste 21 Nordeste 0 -- -- 68
2020-03-10 07:00:00 10.9 8 Nordeste 17 Nordeste 0 -- -- 64
2020-03-10 06:00:00 10.7 6 Nordeste 15 Norte 0 -- -- 68
2020-03-10 05:00:00 10.2 8 Nordeste 15 Nordeste 0 -- -- 69
2020-03-10 04:00:00 10.7 6 Nordeste 14 Este 0 -- -- 65
2020-03-10 03:00:00 11.4 5 Nordeste 13 Este 0 -- -- 62
2020-03-10 02:00:00 11.9 5 Nordeste 11 Nordeste 0 -- -- 60
2020-03-10 01:00:00 12.6 4 Nordeste 13 Nordeste 0 -- -- 60
2020-03-10 00:00:00 14.5 6 Norte 9 Norte 0 -- -- 53
2020-03-09 23:00:00 15.8 4 Norte 13 Norte 0 -- -- 49
2020-03-09 22:00:00 16.2 9 Norte 12 Norte 0 -- -- 48
2020-03-09 21:00:00 16.6 10 Norte 18 Noroeste 0 -- -- 46
2020-03-09 20:00:00 18.6 6 Oeste 10 Noroeste 0 -- -- 47
2020-03-09 19:00:00 21.9 6 Oeste 10 Oeste 0 -- -- 43
2020-03-09 18:00:00 22.5 5 Noroeste 13 Oeste 0 -- -- 38
2020-03-09 17:00:00 22.6 4 Noroeste 15 Noroeste 0 -- -- 37
2020-03-09 16:00:00 21.8 9 Norte 18 Norte 0 -- -- 42
2020-03-09 15:00:00 20.8 10 Noroeste 19 Noroeste 0 -- -- 41
2020-03-09 14:00:00 19.8 8 Norte 18 Noroeste 0 -- -- 42
2020-03-09 13:00:00 19.2 5 Nordeste 14 Nordeste 0 -- -- 42
2020-03-09 12:00:00 17.6 4 Nordeste 12 Este 0 -- -- 53
2020-03-09 11:00:00 16.1 3 Este 8 Nordeste 0 -- -- 65
2020-03-09 10:00:00 13.3 5 Nordeste 10 Nordeste 0 -- -- 76
2020-03-09 09:00:00 10 0 Calma 7 Este 0 -- -- 85
2020-03-09 08:00:00 9.2 4 Este 8 Este 0 -- -- 85
2020-03-09 07:00:00 9.8 4 Este 8 Este 0 -- -- 80
2020-03-09 06:00:00 9.7 2 Sudeste 8 Este 0 -- -- 77
2020-03-09 05:00:00 10.8 5 Este 10 Este 0 -- -- 73
2020-03-09 04:00:00 11.1 6 Este 9 Este 0 -- -- 69
2020-03-09 03:00:00 11.1 3 Nordeste 10 Nordeste 0 -- -- 68
2020-03-09 02:00:00 11.8 5 Nordeste 11 Nordeste 0 -- -- 65
2020-03-09 01:00:00 12.8 5 Nordeste 15 Norte 0 -- -- 59
2020-03-09 00:00:00 14.9 6 Nordeste 17 Norte 0 -- -- 51
2020-03-08 23:00:00 16 7 Norte 15 Noroeste 0 -- -- 46
2020-03-08 22:00:00 17.3 6 Sudoeste 12 Sudoeste 0 -- -- 41
2020-03-08 21:00:00 18.3 8 Sur 10 Sur 0 -- -- 38
2020-03-08 20:00:00 18.1 4 Sudoeste 9 Oeste 0 -- -- 40
2020-03-08 19:00:00 19.2 9 Sudoeste 14 Sudoeste 0 -- -- 43
2020-03-08 18:00:00 21 8 Oeste 17 Oeste 0 -- -- 39
2020-03-08 17:00:00 23.1 9 Oeste 15 Oeste 0 -- -- 32
2020-03-08 16:00:00 22.4 6 Oeste 15 Noroeste 0 -- -- 31
2020-03-08 15:00:00 21.3 7 Noroeste 15 Noroeste 0 -- -- 32
2020-03-08 14:00:00 20.6 4 Sudeste 13 Nordeste 0 -- -- 37
2020-03-08 13:00:00 19.1 6 Nordeste 16 Nordeste 0 -- -- 43
2020-03-08 12:00:00 17.2 8 Nordeste 19 Nordeste 0 -- -- 48
2020-03-08 11:00:00 14.6 13 Este 22 Este 0 -- -- 55
2020-03-08 10:00:00 10.8 11 Nordeste 21 Este 0 -- -- 67
2020-03-08 09:00:00 7.7 8 Nordeste 15 Nordeste 0 -- -- 80
2020-03-08 08:00:00 5.6 6 Nordeste 13 Nordeste 0 -- -- 83
2020-03-08 07:00:00 6.2 7 Nordeste 13 Nordeste 0 -- -- 79
2020-03-08 06:00:00 6.6 6 Este 12 Este 0 -- -- 77
2020-03-08 05:00:00 7 9 Este 13 Este 0 -- -- 75
2020-03-08 04:00:00 7.4 6 Este 12 Este 0 -- -- 73
2020-03-08 03:00:00 8.7 6 Este 10 Este 0 -- -- 68
2020-03-08 02:00:00 9.3 4 Nordeste 10 Este 0 -- -- 66
2020-03-08 01:00:00 9.9 5 Nordeste 11 Nordeste 0 -- -- 63
2020-03-08 00:00:00 10.4 5 Norte 11 Este 0 -- -- 60
2020-03-07 23:00:00 12.3 8 Este 12 Este 0 -- -- 53
2020-03-07 22:00:00 14 6 Este 9 Este 0 -- -- 48
2020-03-07 21:00:00 14.6 4 Este 6 Este 0 -- -- 48
2020-03-07 20:00:00 16.5 2 Este 3 Este 0 -- -- 43
2020-03-07 19:00:00 19.3 0 Calma 10 Nordeste 0 -- -- 39
2020-03-07 18:00:00 20 6 Nordeste 13 Nordeste 0 -- -- 36
2020-03-07 17:00:00 20.6 4 Nordeste 28 Este 0 -- -- 32
2020-03-07 16:00:00 20.1 8 Este 24 Este 0 -- -- 33
2020-03-07 15:00:00 19.6 13 Nordeste 29 Este 0 -- -- 34
2020-03-07 14:00:00 18.5 15 Este 28 Este 0 -- -- 35
2020-03-07 13:00:00 17.8 10 Nordeste 25 Nordeste 0 -- -- 37
2020-03-07 12:00:00 16.2 11 Nordeste 30 Este 0 -- -- 43
2020-03-07 11:00:00 13.5 14 Nordeste 27 Nordeste 0 -- -- 49
2020-03-07 10:00:00 10.6 12 Nordeste 24 Nordeste 0 -- -- 61
2020-03-07 09:00:00 7.6 9 Nordeste 18 Nordeste 0 -- -- 72
2020-03-07 08:00:00 6 7 Nordeste 13 Este 0 -- -- 75
2020-03-07 07:00:00 7.5 6 Nordeste 22 Nordeste 0 -- -- 68
2020-03-07 06:00:00 7.8 10 Nordeste 19 Norte 0 -- -- 69
2020-03-07 05:00:00 8.5 6 Nordeste 12 Nordeste 0 -- -- 67
2020-03-07 04:00:00 8.8 5 Norte 10 Norte 0 -- -- 67
2020-03-07 03:00:00 9 8 Norte 14 Norte 0 -- -- 69
2020-03-07 02:00:00 9.8 6 Noroeste 9 Noroeste 0 -- -- 68
2020-03-07 01:00:00 9.4 8 Noroeste 9 Oeste 0 -- -- 71
2020-03-07 00:00:00 10.2 7 Noroeste 14 Noroeste 0 -- -- 69
2020-03-06 23:00:00 10.6 10 Noroeste 18 Noroeste 0 -- -- 68
2020-03-06 22:00:00 11.2 10 Noroeste 21 Noroeste 0 -- -- 65
2020-03-06 21:00:00 12.1 6 Noroeste 20 Noroeste 0 -- -- 60
2020-03-06 20:00:00 12.6 12 Noroeste 21 Noroeste 0 -- -- 61
2020-03-06 19:00:00 15.9 16 Noroeste 30 Oeste 0 -- -- 49
2020-03-06 18:00:00 17.5 23 Noroeste 32 Noroeste 0 -- -- 45
2020-03-06 17:00:00 18.2 22 Noroeste 35 Noroeste 0 -- -- 43
2020-03-06 16:00:00 18.4 24 Noroeste 37 Noroeste 0 -- -- 42
2020-03-06 15:00:00 17.9 22 Oeste 36 Oeste 0 -- -- 46
2020-03-06 14:00:00 17.3 17 Oeste 32 Oeste 0 -- -- 46
2020-03-06 13:00:00 15.5 15 Oeste 28 Oeste 0 -- -- 59
2020-03-06 12:00:00 14.8 19 Oeste 31 Oeste 0 -- -- 63
2020-03-06 11:00:00 12.6 15 Sudoeste 23 Sudoeste 0 -- -- 80
2020-03-06 10:00:00 9.7 11 Sudoeste 15 Sudoeste 0 -- -- 88
2020-03-06 09:00:00 8.8 13 Oeste 17 Oeste 0 -- -- 93
2020-03-06 08:00:00 5.9 12 Sudoeste 17 Sudoeste 0 -- -- 90
2020-03-06 07:00:00 5.9 11 Sudoeste 14 Oeste 0 -- -- 90
2020-03-06 06:00:00 6.1 10 Oeste 14 Oeste 0 -- -- 88
2020-03-06 05:00:00 7.1 6 Oeste 10 Sudoeste 0 -- -- 86
2020-03-06 04:00:00 7.6 6 Noroeste 18 Oeste 0 -- -- 85
2020-03-06 03:00:00 7.6 11 Noroeste 15 Noroeste 0 -- -- 84
2020-03-06 02:00:00 8.5 8 Noroeste 21 Oeste 0 -- -- 81
2020-03-06 01:00:00 9.9 14 Noroeste 21 Oeste 0 -- -- 76
2020-03-06 00:00:00 10.3 14 Oeste 21 Oeste 0 -- -- 75
2020-03-05 23:00:00 11.6 16 Oeste 30 Oeste 0 -- -- 70
2020-03-05 22:00:00 12.2 17 Oeste 24 Oeste 0 -- -- 68
2020-03-05 21:00:00 12.1 12 Oeste 21 Oeste 0 -- -- 69
2020-03-05 20:00:00 13.9 16 Oeste 23 Oeste 0 -- -- 63
2020-03-05 19:00:00 16.3 17 Oeste 28 Oeste 0 -- -- 56
2020-03-05 18:00:00 17.7 20 Noroeste 33 Noroeste 0 -- -- 52
2020-03-05 17:00:00 18.5 23 Oeste 37 Oeste 0 -- -- 53
2020-03-05 16:00:00 17.3 24 Oeste 33 Oeste 0 -- -- 69
2020-03-05 15:00:00 17 24 Oeste 34 Oeste 0 -- -- 75
2020-03-05 14:00:00 15.2 23 Sudoeste 42 Sudoeste 0 -- -- 84
2020-03-05 13:00:00 13.4 18 Sudoeste 34 Sudoeste 0 -- -- 92
2020-03-05 12:00:00 12.2 25 Sudoeste 31 Sudoeste 0 -- -- 96
2020-03-05 11:00:00 11.5 13 Sudoeste 18 Sudoeste 0 -- -- 98
2020-03-05 10:00:00 9.8 6 Sur 11 Sudoeste 0 -- -- 97
2020-03-05 09:00:00 9.3 8 Sudoeste 20 Sudoeste 0 -- -- 97
2020-03-05 08:00:00 8.6 8 Sudoeste 10 Sudoeste 0 -- -- 96
2020-03-05 07:00:00 8.8 8 Sudoeste 12 Sudoeste 0 -- -- 96
2020-03-05 06:00:00 9.8 9 Sudoeste 14 Sudoeste 0 -- -- 95
2020-03-05 05:00:00 9.3 12 Sur 16 Sur 0 -- -- 95
2020-03-05 04:00:00 10.2 14 Sur 17 Sur 0 -- -- 94
2020-03-05 03:00:00 10.2 9 Sur 14 Sur 0 -- -- 93
2020-03-05 02:00:00 10.5 13 Sur 19 Sur 0 -- -- 92
2020-03-05 01:00:00 10.8 13 Sudoeste 21 Sur 0 -- -- 89
2020-03-05 00:00:00 11.4 12 Sur 17 Sur 0 -- -- 87
2020-03-04 23:00:00 13 12 Sur 15 Sudoeste 0 -- -- 75
2020-03-04 22:00:00 14.9 6 Norte 9 Norte 0 -- -- 67
2020-03-04 21:00:00 15 6 Norte 15 Norte 0 -- -- 68
2020-03-04 20:00:00 16.1 10 Noroeste 16 Norte 0 -- -- 66
2020-03-04 19:00:00 19 11 Norte 16 Noroeste 0 -- -- 58
2020-03-04 18:00:00 20.5 9 Noroeste 18 Noroeste 0 -- -- 55
2020-03-04 17:00:00 21.1 13 Noroeste 21 Norte 0 -- -- 53
2020-03-04 16:00:00 21.3 8 Noroeste 21 Oeste 0 -- -- 53
2020-03-04 15:00:00 20.2 10 Oeste 25 Oeste 0 -- -- 55
2020-03-04 14:00:00 19.7 14 Noroeste 24 Noroeste 0 -- -- 58
2020-03-04 13:00:00 18.6 10 Oeste 20 Noroeste 0 -- -- 65
2020-03-04 12:00:00 16.9 10 Noroeste 17 Noroeste 0 -- -- 69
2020-03-04 11:00:00 13.5 7 Sudoeste 13 Sudoeste 0 -- -- 98
2020-03-04 10:00:00 10.8 10 Sudoeste 15 Sur 0 -- -- 98
2020-03-04 09:00:00 9.4 8 Sur 12 Sur 0 -- -- 97
2020-03-04 08:00:00 9.6 10 Sur 14 Sur 0 -- -- 97
2020-03-04 07:00:00 10.4 10 Sudoeste 14 Sudoeste 0 -- -- 97
2020-03-04 06:00:00 11.2 9 Sudoeste 12 Sudoeste 0 -- -- 97
2020-03-04 05:00:00 11.9 9 Sudoeste 18 Sudoeste 0 -- -- 96
2020-03-04 04:00:00 12.7 14 Sudoeste 19 Sudoeste 0 -- -- 96
2020-03-04 03:00:00 13.1 10 Sudoeste 24 Sudoeste 0 -- -- 95
2020-03-04 02:00:00 13.2 18 Sudoeste 28 Sudoeste 0 -- -- 95
2020-03-04 01:00:00 13.6 17 Sudoeste 25 Sudoeste 0 -- -- 94
2020-03-04 00:00:00 13.7 16 Sudoeste 29 Sudoeste 0 -- -- 93
2020-03-03 23:00:00 13.8 21 Sudoeste 35 Sudoeste 0 -- -- 91
2020-03-03 22:00:00 13.9 21 Sudoeste 32 Sudoeste 0 -- -- 88
2020-03-03 21:00:00 13.9 25 Sudoeste 36 Sudoeste 0 -- -- 85
2020-03-03 20:00:00 14.9 24 Sudoeste 37 Sudoeste 0 -- -- 79
2020-03-03 19:00:00 15.7 25 Sudoeste 36 Sudoeste 0 -- -- 75
2020-03-03 18:00:00 16.2 27 Sudoeste 36 Sudoeste 0 -- -- 73
2020-03-03 17:00:00 16.8 25 Sudoeste 37 Sudoeste 0 -- -- 68
2020-03-03 16:00:00 16.8 25 Sudoeste 36 Oeste 0 -- -- 68
2020-03-03 15:00:00 16.9 23 Oeste 34 Sudoeste 0 -- -- 66
2020-03-03 14:00:00 16.5 26 Sudoeste 37 Oeste 0 -- -- 66
2020-03-03 13:00:00 15.6 18 Sudoeste 29 Sudoeste 0 -- -- 66
2020-03-03 12:00:00 14.3 17 Sudoeste 26 Sudoeste 0 -- -- 71
2020-03-03 11:00:00 11.8 14 Sudoeste 19 Sur 0 -- -- 81
2020-03-03 10:00:00 8.8 12 Sudoeste 18 Sudoeste 0 -- -- 90
2020-03-03 09:00:00 7.2 11 Sur 15 Sur 0 -- -- 92
2020-03-03 08:00:00 6.8 9 Sur 15 Sur 0 -- -- 90
2020-03-03 07:00:00 7.6 11 Sur 13 Sur 0 -- -- 85
2020-03-03 06:00:00 8.8 5 Sudoeste 8 Oeste 0 -- -- 81
2020-03-03 05:00:00 9.1 4 Oeste 13 Oeste 0 -- -- 82
2020-03-03 04:00:00 9.7 4 Noroeste 12 Noroeste 0 -- -- 81
2020-03-03 03:00:00 10.6 5 Noroeste 10 Noroeste 0 -- -- 78
2020-03-03 02:00:00 10.9 7 Noroeste 13 Oeste 0 -- -- 79
2020-03-03 01:00:00 11.4 5 Oeste 16 Oeste 0 -- -- 75
2020-03-03 00:00:00 10.7 11 Oeste 17 Noroeste 0 -- -- 76
2020-03-02 23:00:00 10.8 14 Oeste 18 Noroeste 0 -- -- 75
2020-03-02 22:00:00 11.1 12 Oeste 23 Noroeste 0 -- -- 74
2020-03-02 21:00:00 12.5 14 Oeste 35 Noroeste 0 -- -- 67
2020-03-02 20:00:00 13.5 15 Oeste 27 Noroeste 0 -- -- 61
2020-03-02 19:00:00 15.5 19 Noroeste 32 Oeste 0 -- -- 53
2020-03-02 18:00:00 17.7 25 Oeste 42 Oeste 0 -- -- 51
2020-03-02 17:00:00 18.5 23 Oeste 43 Oeste 0 -- -- 50
2020-03-02 16:00:00 18.7 27 Oeste 53 Oeste 0 -- -- 50
2020-03-02 15:00:00 19.6 33 Oeste 63 Oeste 0 -- -- 45
2020-03-02 14:00:00 19.4 36 Oeste 71 Oeste 0 -- -- 45
2020-03-02 13:00:00 19.3 39 Oeste 55 Oeste 0 -- -- 59
2020-03-02 12:00:00 17.3 37 Oeste 56 Sudoeste 0 -- -- 80
2020-03-02 11:00:00 16.1 36 Sudoeste 54 Sudoeste 0 -- -- 91
2020-03-02 10:00:00 15.5 38 Sudoeste 55 Sudoeste 0 -- -- 96
2020-03-02 09:00:00 14.5 39 Sudoeste 55 Sudoeste 0 -- -- 96
2020-03-02 08:00:00 14.1 35 Sudoeste 49 Sudoeste 0 -- -- 96
2020-03-02 07:00:00 14.1 35 Sudoeste 50 Sudoeste 2 -- -- 96
2020-03-02 06:00:00 14.3 24 Sudoeste 43 Oeste 0 -- -- 93
2020-03-02 05:00:00 14.4 28 Sudoeste 60 Sudoeste 0 -- -- 93
2020-03-02 04:00:00 14.4 37 Sudoeste 51 Sudoeste 0 -- -- 94
2020-03-02 03:00:00 14.4 35 Sudoeste 52 Sudoeste 0 -- -- 95
2020-03-02 02:00:00 14.2 28 Sudoeste 44 Sudoeste 0 -- -- 95
2020-03-02 01:00:00 14.2 30 Sudoeste 48 Sudoeste 0 -- -- 95
2020-03-02 00:00:00 14.1 27 Sudoeste 40 Sudoeste 0.2 -- -- 95
2020-03-01 23:00:00 14.2 26 Sudoeste 38 Sudoeste 0 -- -- 94
2020-03-01 22:00:00 14.4 24 Sudoeste 32 Sudoeste 0 -- -- 91
2020-03-01 21:00:00 14.6 24 Sudoeste 37 Sudoeste 0 -- -- 90
2020-03-01 20:00:00 14.9 22 Sudoeste 32 Sudoeste 0 -- -- 87
2020-03-01 19:00:00 14.8 26 Sudoeste 42 Sudoeste 0 -- -- 88
2020-03-01 18:00:00 15.9 27 Sudoeste 41 Sudoeste 0 -- -- 81
2020-03-01 17:00:00 16.5 27 Sudoeste 36 Sudoeste 0 -- -- 76
2020-03-01 16:00:00 17.1 24 Sudoeste 39 Sudoeste 0 -- -- 70
2020-03-01 15:00:00 18.1 27 Sudoeste 39 Oeste 0 -- -- 66
2020-03-01 14:00:00 17.1 21 Sudoeste 32 Sudoeste 0 -- -- 71
2020-03-01 13:00:00 15.9 20 Oeste 35 Oeste 0 -- -- 78
2020-03-01 12:00:00 15.3 23 Sudoeste 33 Sudoeste 0 -- -- 87
2020-03-01 11:00:00 13.3 14 Sudoeste 22 Sudoeste 0 -- -- 96
2020-03-01 10:00:00 12.2 17 Sudoeste 28 Sudoeste 0 -- -- 98
2020-03-01 09:00:00 10.6 14 Sudoeste 18 Sudoeste 0 -- -- 98
2020-03-01 08:00:00 9.9 12 Sur 19 Sudoeste 0 -- -- 97
2020-03-01 07:00:00 10.5 14 Sudoeste 20 Sudoeste 0 -- -- 97
2020-03-01 06:00:00 10.6 13 Sudoeste 17 Sudoeste 0 -- -- 97
2020-03-01 05:00:00 11.2 9 Oeste 18 Oeste 0 -- -- 97
2020-03-01 04:00:00 11.5 13 Sudoeste 17 Sudoeste 0 -- -- 97
2020-03-01 03:00:00 12.2 14 Oeste 27 Oeste 0 -- -- 97
2020-03-01 02:00:00 13.5 22 Oeste 28 Sudoeste 0 -- -- 97
2020-03-01 01:00:00 14.1 18 Sudoeste 26 Sudoeste 0 -- -- 97
2020-03-01 00:00:00 13.9 13 Sudoeste 26 Oeste 0.2 -- -- 96
2020-02-29 23:00:00 13.6 17 Sudoeste 30 Sudoeste 1.6 -- -- 96
2020-02-29 22:00:00 13.3 21 Sudoeste 35 Sudoeste 1 -- -- 95
2020-02-29 21:00:00 13.5 22 Sudoeste 33 Sudoeste 0.8 -- -- 94
2020-02-29 20:00:00 13.7 26 Sudoeste 41 Sudoeste 0 -- -- 89
2020-02-29 19:00:00 13.9 28 Sudoeste 44 Oeste 0 -- -- 89
2020-02-29 18:00:00 15.5 31 Sudoeste 44 Sudoeste 0 -- -- 76
2020-02-29 17:00:00 15.8 31 Sudoeste 41 Sudoeste 0 -- -- 73
2020-02-29 16:00:00 15.8 26 Sudoeste 39 Sudoeste 0 -- -- 72
2020-02-29 15:00:00 15.7 23 Sudoeste 35 Sudoeste 0 -- -- 70
2020-02-29 14:00:00 16.2 23 Sudoeste 37 Sudoeste 0 -- -- 68
2020-02-29 13:00:00 14.5 26 Sudoeste 33 Sudoeste 0 -- -- 75
2020-02-29 12:00:00 14.1 17 Sudoeste 25 Sudoeste 0 -- -- 78
2020-02-29 11:00:00 12.4 17 Oeste 27 Oeste 0 -- -- 92
2020-02-29 10:00:00 11.1 13 Sudoeste 21 Sudoeste 0 -- -- 96
2020-02-29 09:00:00 10.8 10 Sudoeste 22 Sudoeste 0 -- -- 97
2020-02-29 08:00:00 10.9 16 Sudoeste 24 Sudoeste 0 -- -- 96
2020-02-29 07:00:00 11.2 9 Sudoeste 14 Sudoeste 0 -- -- 96
2020-02-29 06:00:00 11.3 11 Sudoeste 14 Sudoeste 0 -- -- 96
2020-02-29 05:00:00 11.6 8 Sudoeste 18 Sudoeste 0 -- -- 96
2020-02-29 04:00:00 11.4 10 Sudoeste 19 Sudoeste 0 -- -- 95
2020-02-29 03:00:00 11.4 15 Sudoeste 23 Sudoeste 0 -- -- 93
2020-02-29 02:00:00 12.1 14 Sudoeste 20 Sudoeste 0 -- -- 94
2020-02-29 01:00:00 12 9 Sudoeste 15 Sudoeste 0 -- -- 93
2020-02-29 00:00:00 11.8 11 Sudoeste 16 Sudoeste 0 -- -- 92